PHKO METAR and TAF weather

Enter ICAO airport designator
Station Type Date Time Source
PHKO METAR 2019/08/25 01:53 UTC NOAA

PHKO 250153Z 29007KT 10SM OVC050 29/23 A2988 RMK AO2 SLP118 T02940228


Station Type Date Time Source
PHKO Decoded METAR 2019/08/25 01:53 UTC NOAA

Station name not available
Aug 24, 2019 - 09:53 PM EDT / 2019.08.25 0153 UTC
Wind: from the WNW (290 degrees) at 8 MPH (7 KT):0
Visibility: 10 mile(s):0
Sky conditions: overcast
Temperature: 84.9 F (29.4 C)
Dew Point: 73.0 F (22.8 C)
Relative Humidity: 67%
Pressure (altimeter): 29.88 in. Hg (1011 hPa)
ob: PHKO 250153Z 29007KT 10SM OVC050 29/23 A2988 RMK AO2 SLP118 T02940228
cycle: 2

Station Type Date Time Source
PHKO TAF 2019/08/24 18:30 UTC NOAA

TAF PHKO 241728Z 2418/2518 VRB05KT P6SM FEW030
FM242100 24009KT P6SM FEW030 BKN050
FM250600 15006KT P6SM FEW030 BKN050

Example: see airport list